createdAt,value
2022-08-14T00:02:27.197Z,99656.56
2022-08-14T00:04:56.329Z,99651.25
2022-08-14T00:07:24.026Z,99649.47
2022-08-14T00:10:01.374Z,99646.78
2022-08-14T00:12:53.368Z,99641.47
2022-08-14T00:15:43.845Z,99641.47
2022-08-14T00:18:30.419Z,99640.59
2022-08-14T00:21:11.371Z,99634.34
2022-08-14T00:23:40.471Z,99628.13
2022-08-14T00:26:21.950Z,99624.63
2022-08-14T00:28:53.096Z,99621.94
2022-08-14T00:31:35.358Z,99619.28
2022-08-14T00:34:35.496Z,99620.16
2022-08-14T00:36:56.059Z,99619.28
2022-08-14T00:39:26.742Z,99613.06
2022-08-14T00:41:53.988Z,99618.38
2022-08-14T00:44:31.925Z,99613.06
2022-08-14T00:47:03.410Z,99614.81
2022-08-14T00:49:38.111Z,99616.59
2022-08-14T00:52:18.054Z,99617.47
2022-08-14T00:54:58.127Z,99608.63
2022-08-14T00:57:34.809Z,99612.13
2022-08-14T01:00:34.301Z,99607.72
2022-08-14T01:03:04.089Z,99607.69
2022-08-14T01:05:50.965Z,99600.63
2022-08-14T01:08:51.135Z,99605.91
2022-08-14T01:11:19.115Z,99606.78
2022-08-14T01:13:56.244Z,99606.78
2022-08-14T01:16:31.011Z,99594.34
2022-08-14T01:19:19.791Z,99597.91
2022-08-14T01:21:53.031Z,99596.09
2022-08-14T01:24:30.578Z,99583.72
2022-08-14T01:27:05.318Z,99588.13
2022-08-14T01:29:59.094Z,99584.59
2022-08-14T01:32:25.198Z,99584.59
2022-08-14T01:35:20.850Z,99585.38
2022-08-14T01:37:46.811Z,99579.22
2022-08-14T01:40:37.014Z,99581.91
2022-08-14T01:43:15.634Z,99578.38
2022-08-14T01:45:48.909Z,99576.56
2022-08-14T01:48:20.930Z,99582.72
2022-08-14T01:50:48.380Z,99568.59
2022-08-14T01:53:17.722Z,99579.22
2022-08-14T01:55:45.026Z,99563.25
2022-08-14T01:58:18.728Z,99572.94
2022-08-14T02:00:55.508Z,99571.19
2022-08-14T02:03:31.120Z,99566.72
2022-08-14T02:06:03.860Z,99563.16
2022-08-14T02:08:53.168Z,99554.31
2022-08-14T02:11:25.839Z,99556.97
2022-08-14T02:14:07.486Z,99543.66
2022-08-14T02:16:54.233Z,99539.19
2022-08-14T02:19:27.253Z,99540.06
2022-08-14T02:22:02.821Z,99540.94
2022-08-14T02:24:39.573Z,99545.38
2022-08-14T02:28:23.039Z,99548.91
2022-08-14T02:30:01.189Z,99545.41
2022-08-14T02:32:37.194Z,99546.31
2022-08-14T02:35:18.415Z,99551.59
2022-08-14T02:37:49.566Z,99549.81
2022-08-14T02:40:32.388Z,99540.91
2022-08-14T02:43:03.730Z,99542.63
2022-08-14T02:45:37.845Z,99536.44
2022-08-14T02:48:10.420Z,99544.38
2022-08-14T02:50:55.008Z,99539.97
2022-08-14T02:53:22.437Z,99531.16
2022-08-14T02:55:49.869Z,99532.00
2022-08-14T02:58:30.644Z,99524.94
2022-08-14T03:01:01.146Z,99525.84
2022-08-14T03:03:30.111Z,99525.84
2022-08-14T03:06:00.465Z,99516.94
2022-08-14T03:08:33.200Z,99525.78
2022-08-14T03:11:07.656Z,99523.13
2022-08-14T03:13:47.416Z,99522.19
2022-08-14T03:16:26.848Z,99512.44
2022-08-14T03:19:00.534Z,99520.31
2022-08-14T03:21:32.850Z,99509.66
2022-08-14T03:24:16.420Z,99499.06
2022-08-14T03:26:57.384Z,99497.28
2022-08-14T03:29:27.614Z,99491.06
2022-08-14T03:31:56.897Z,99491.91
2022-08-14T03:34:52.616Z,99483.06
2022-08-14T03:37:38.259Z,99481.25
2022-08-14T03:40:01.910Z,99481.25
2022-08-14T03:42:31.118Z,99477.72
2022-08-14T03:45:18.801Z,99472.41
2022-08-14T03:47:58.763Z,99469.72
2022-08-14T03:50:31.441Z,99465.28
2022-08-14T03:53:02.205Z,99455.56
2022-08-14T03:55:31.634Z,99458.16
2022-08-14T03:58:00.382Z,99456.34
2022-08-14T04:00:44.314Z,99451.88
2022-08-14T04:03:23.610Z,99453.63
2022-08-14T04:05:53.126Z,99447.47
2022-08-14T04:08:29.142Z,99459.00
2022-08-14T04:11:01.547Z,99457.28
2022-08-14T04:13:34.010Z,99473.19
2022-08-14T04:16:12.740Z,99477.56
2022-08-14T04:18:50.838Z,99485.47
2022-08-14T04:21:18.926Z,99485.44
2022-08-14T04:23:49.041Z,99500.44
2022-08-14T04:26:42.863Z,99505.69
2022-08-14T04:29:15.337Z,99512.78
2022-08-14T04:32:58.359Z,99515.44
2022-08-14T04:34:33.793Z,99512.81
2022-08-14T04:37:24.854Z,99523.41
2022-08-14T04:40:15.193Z,99518.06
2022-08-14T04:43:02.394Z,99525.09
2022-08-14T04:45:40.514Z,99522.44
2022-08-14T04:48:39.434Z,99526.88
2022-08-14T04:51:09.057Z,99526.88
2022-08-14T04:53:43.745Z,99526.88
2022-08-14T04:56:30.545Z,99520.78
2022-08-14T04:59:09.618Z,99518.19
2022-08-14T05:01:47.831Z,99526.19
2022-08-14T05:04:20.808Z,99512.03
2022-08-14T05:06:53.468Z,99519.13
2022-08-14T05:09:24.206Z,99518.25
2022-08-14T05:11:52.976Z,99505.06
2022-08-14T05:14:46.595Z,99499.75
2022-08-14T05:17:12.057Z,99498.91
2022-08-14T05:19:45.025Z,99504.25
2022-08-14T05:22:27.793Z,99493.72
2022-08-14T05:24:55.069Z,99497.25
2022-08-14T05:27:23.972Z,99501.72
2022-08-14T05:29:55.202Z,99504.41
2022-08-14T05:32:26.884Z,99506.25
2022-08-14T05:34:58.103Z,99500.06
2022-08-14T05:37:29.584Z,99506.31
2022-08-14T05:40:00.523Z,99510.72
2022-08-14T05:42:31.864Z,99505.44
2022-08-14T05:45:00.134Z,99503.72
2022-08-14T05:47:33.754Z,99495.78
2022-08-14T05:50:17.648Z,99492.28
2022-08-14T05:52:50.799Z,99492.31
2022-08-14T05:55:22.748Z,99495.00
2022-08-14T05:58:07.199Z,99494.19
2022-08-14T06:00:44.429Z,99496.84
2022-08-14T06:03:17.293Z,99496.88
2022-08-14T06:05:47.771Z,99491.63
2022-08-14T06:08:36.455Z,99489.81
2022-08-14T06:11:10.388Z,99495.16
2022-08-14T06:13:45.026Z,99494.28
2022-08-14T06:16:17.716Z,99499.63
2022-08-14T06:18:52.620Z,99495.16
2022-08-14T06:21:22.998Z,99497.81
2022-08-14T06:23:51.607Z,99497.81
2022-08-14T06:26:20.823Z,99490.75
2022-08-14T06:28:51.840Z,99487.19
2022-08-14T06:31:21.226Z,99484.53
2022-08-14T06:35:02.762Z,99487.19
2022-08-14T06:36:39.542Z,99483.66
2022-08-14T06:39:10.319Z,99489.84
2022-08-14T06:41:57.894Z,99493.38
2022-08-14T06:44:32.596Z,99494.22
2022-08-14T06:47:02.792Z,99495.94
2022-08-14T06:49:31.047Z,99504.75
2022-08-14T06:52:15.262Z,99500.31
2022-08-14T06:54:45.286Z,99494.00
2022-08-14T06:57:13.858Z,99496.66
2022-08-14T06:59:42.040Z,99501.03
2022-08-14T07:02:29.106Z,99499.22
2022-08-14T07:05:16.993Z,99492.09
2022-08-14T07:07:51.061Z,99478.69
2022-08-14T07:10:18.664Z,99481.28
2022-08-14T07:13:01.254Z,99476.81
2022-08-14T07:15:29.837Z,99471.41
2022-08-14T07:18:01.400Z,99472.19
2022-08-14T07:20:30.840Z,99481.03
2022-08-14T07:23:09.185Z,99486.31
2022-08-14T07:25:43.781Z,99473.78
2022-08-14T07:28:26.482Z,99475.41
2022-08-14T07:31:04.756Z,99486.78
2022-08-14T07:33:50.181Z,99491.88
2022-08-14T07:36:27.514Z,99495.44
2022-08-14T07:39:02.963Z,99487.34
2022-08-14T07:41:42.503Z,99497.22
2022-08-14T07:44:32.437Z,99505.41
2022-08-14T07:46:58.940Z,99510.50
2022-08-14T07:49:27.367Z,99513.22
2022-08-14T07:51:56.718Z,99518.25
2022-08-14T07:54:30.369Z,99523.47
2022-08-14T07:57:00.614Z,99518.94
2022-08-14T07:59:41.524Z,99508.25
2022-08-14T08:02:17.326Z,99510.25
2022-08-14T08:04:54.390Z,99518.19
2022-08-14T08:07:30.335Z,99510.94
2022-08-14T08:10:00.855Z,99519.88
2022-08-14T08:12:32.408Z,99514.44
2022-08-14T08:15:02.724Z,99517.78
2022-08-14T08:17:38.608Z,99521.97
2022-08-14T08:20:11.992Z,99525.22
2022-08-14T08:22:43.406Z,99533.16
2022-08-14T08:25:18.090Z,99535.88
2022-08-14T08:28:31.396Z,99532.50
2022-08-14T08:31:06.329Z,99538.03
2022-08-14T08:33:37.677Z,99530.63
2022-08-14T08:36:12.933Z,99524.00
2022-08-14T08:39:17.531Z,99530.09
2022-08-14T08:41:55.688Z,99537.09
2022-08-14T08:44:32.992Z,99510.91
2022-08-14T08:47:07.765Z,99511.50
2022-08-14T08:49:48.792Z,99510.63
2022-08-14T08:52:31.892Z,99504.56
2022-08-14T08:55:04.359Z,99491.41
2022-08-14T08:57:37.616Z,99486.50
2022-08-14T09:00:25.493Z,99486.34
2022-08-14T09:03:18.078Z,99479.22
2022-08-14T09:06:01.462Z,99484.25
2022-08-14T09:08:37.028Z,99480.53
2022-08-14T09:11:19.325Z,99471.47
2022-08-14T09:13:52.141Z,99469.66
2022-08-14T09:16:24.886Z,99467.72
2022-08-14T09:18:53.974Z,99455.94
2022-08-14T09:21:23.905Z,99453.09
2022-08-14T09:24:26.209Z,99465.97
2022-08-14T09:26:49.135Z,99464.66
2022-08-14T09:29:20.100Z,99459.72
2022-08-14T09:32:03.527Z,99457.50
2022-08-14T09:35:21.208Z,99449.88
2022-08-14T09:38:07.374Z,99457.72
2022-08-14T09:41:19.578Z,99453.06
2022-08-14T09:44:54.309Z,99441.41
2022-08-14T09:47:40.761Z,99453.72
2022-08-14T09:50:29.971Z,99458.97
2022-08-14T09:54:19.095Z,99447.91
2022-08-14T09:56:51.627Z,99446.84
2022-08-14T09:59:28.414Z,99442.69
2022-08-14T10:02:01.102Z,99441.97
2022-08-14T10:04:34.170Z,99448.13
2022-08-14T10:07:05.941Z,99443.69
2022-08-14T10:09:35.029Z,99451.81
2022-08-14T10:12:05.340Z,99441.63
2022-08-14T10:14:36.928Z,99438.50
2022-08-14T10:17:08.257Z,99440.59
2022-08-14T10:19:47.676Z,99434.31
2022-08-14T10:23:12.224Z,99431.94
2022-08-14T10:25:16.494Z,99428.28
2022-08-14T10:27:50.089Z,99432.81
2022-08-14T10:30:34.962Z,99423.78
2022-08-14T10:33:02.436Z,99423.69
2022-08-14T10:35:47.866Z,99407.19
2022-08-14T10:38:35.550Z,99408.03
2022-08-14T10:41:16.280Z,99404.41
2022-08-14T10:44:09.206Z,99410.75
2022-08-14T10:47:41.558Z,99417.81
2022-08-14T10:50:01.122Z,99416.47
2022-08-14T10:52:34.528Z,99424.47
2022-08-14T10:55:19.380Z,99422.56
2022-08-14T10:57:54.634Z,99416.59
2022-08-14T11:00:29.499Z,99410.06
2022-08-14T11:03:09.646Z,99404.81
2022-08-14T11:05:48.804Z,99400.53
2022-08-14T11:08:34.229Z,99390.97
2022-08-14T11:11:05.880Z,99382.81
2022-08-14T11:13:39.253Z,99384.28
2022-08-14T11:16:07.421Z,99386.44
2022-08-14T11:18:40.350Z,99378.91
2022-08-14T11:21:09.687Z,99372.31
2022-08-14T11:23:41.301Z,99358.06
2022-08-14T11:26:16.825Z,99364.31
2022-08-14T11:28:48.709Z,99354.16
2022-08-14T11:31:25.933Z,99359.41
2022-08-14T11:34:03.005Z,99354.34
2022-08-14T11:36:56.985Z,99351.84
2022-08-14T11:39:33.943Z,99354.53
2022-08-14T11:42:55.762Z,99361.34
2022-08-14T11:45:11.448Z,99364.56
2022-08-14T11:48:12.655Z,99361.50
2022-08-14T11:50:37.107Z,99360.22
2022-08-14T11:53:07.840Z,99360.19
2022-08-14T11:55:39.703Z,99345.44
2022-08-14T11:58:15.668Z,99346.13
2022-08-14T12:00:59.911Z,99353.59
2022-08-14T12:03:51.930Z,99352.69
2022-08-14T12:06:29.787Z,99356.72
2022-08-14T12:09:08.827Z,99355.00
2022-08-14T12:11:46.873Z,99347.06
2022-08-14T12:14:34.734Z,99344.63
2022-08-14T12:17:12.471Z,99338.50
2022-08-14T12:19:51.230Z,99342.75
2022-08-14T12:22:43.394Z,99336.59
2022-08-14T12:25:29.936Z,99324.25
2022-08-14T12:28:27.131Z,99326.69
2022-08-14T12:30:58.409Z,99323.09
2022-08-14T12:33:33.786Z,99332.28
2022-08-14T12:36:07.938Z,99323.03
2022-08-14T12:38:43.784Z,99312.63
2022-08-14T12:41:24.060Z,99315.50
2022-08-14T12:44:06.623Z,99309.22
2022-08-14T12:46:41.254Z,99305.38
2022-08-14T12:49:17.817Z,99311.50
2022-08-14T12:52:02.812Z,99306.09
2022-08-14T12:54:32.074Z,99308.94
2022-08-14T12:57:19.372Z,99296.91
2022-08-14T12:59:49.341Z,99293.28
2022-08-14T13:02:26.314Z,99282.25
2022-08-14T13:04:56.705Z,99287.25
2022-08-14T13:07:32.471Z,99291.75
2022-08-14T13:10:45.693Z,99281.38
2022-08-14T13:13:15.666Z,99276.13
2022-08-14T13:15:57.278Z,99275.44
2022-08-14T13:18:29.381Z,99273.03
2022-08-14T13:21:02.089Z,99269.28
2022-08-14T13:23:36.481Z,99256.34
2022-08-14T13:26:06.432Z,99250.91
2022-08-14T13:29:00.485Z,99241.25
2022-08-14T13:31:30.046Z,99234.53
2022-08-14T13:34:00.116Z,99231.22
2022-08-14T13:36:51.812Z,99234.84
2022-08-14T13:39:24.509Z,99224.91
2022-08-14T13:41:55.561Z,99217.97
2022-08-14T13:44:27.387Z,99209.03
2022-08-14T13:46:55.586Z,99197.06
2022-08-14T13:49:24.035Z,99195.22
2022-08-14T13:51:58.761Z,99198.19
2022-08-14T13:54:32.733Z,99196.38
2022-08-14T13:57:03.497Z,99187.72
2022-08-14T13:59:37.821Z,99183.44
2022-08-14T14:02:08.294Z,99192.31
2022-08-14T14:04:49.367Z,99177.38
2022-08-14T14:07:21.786Z,99176.44
2022-08-14T14:09:56.264Z,99166.06
2022-08-14T14:12:38.177Z,99154.03
2022-08-14T14:15:19.737Z,99148.72
2022-08-14T14:17:59.072Z,99149.50
2022-08-14T14:20:35.162Z,99137.59
2022-08-14T14:23:11.532Z,99138.19
2022-08-14T14:25:51.146Z,99132.63
2022-08-14T14:28:32.314Z,99127.72
2022-08-14T14:31:06.045Z,99131.38
2022-08-14T14:33:48.867Z,99126.63
2022-08-14T14:36:26.464Z,99116.19
2022-08-14T14:39:01.093Z,99120.47
2022-08-14T14:41:43.441Z,99116.13
2022-08-14T14:44:15.992Z,99118.00
2022-08-14T14:46:49.820Z,99117.91
2022-08-14T14:49:21.790Z,99124.09
2022-08-14T14:51:51.635Z,99120.16
2022-08-14T14:54:30.841Z,99116.59
2022-08-14T14:57:02.474Z,99118.06
2022-08-14T14:59:34.296Z,99108.78
2022-08-14T15:02:07.939Z,99112.81
2022-08-14T15:04:43.468Z,99113.25
2022-08-14T15:07:12.641Z,99122.44
2022-08-14T15:09:41.001Z,99122.00
2022-08-14T15:12:34.461Z,99122.00
2022-08-14T15:14:58.180Z,99123.34
2022-08-14T15:17:40.790Z,99114.25
2022-08-14T15:20:17.339Z,99119.56
2022-08-14T15:23:12.151Z,99121.13
2022-08-14T15:25:53.167Z,99120.09
2022-08-14T15:28:22.055Z,99126.91
2022-08-14T15:30:57.796Z,99125.31
2022-08-14T15:34:13.249Z,99129.88
2022-08-14T15:36:35.144Z,99115.88
2022-08-14T15:39:04.620Z,99125.03
2022-08-14T15:41:33.844Z,99117.47
2022-08-14T15:44:24.777Z,99117.22
2022-08-14T15:46:56.197Z,99109.16
2022-08-14T15:49:34.501Z,99118.44
2022-08-14T15:52:06.628Z,99113.72
2022-08-14T15:54:35.287Z,99104.41
2022-08-14T15:57:09.164Z,99108.91
2022-08-14T15:59:57.423Z,99105.06
2022-08-14T16:02:28.128Z,99090.88
2022-08-14T16:04:56.409Z,99093.13
2022-08-14T16:07:27.613Z,99093.31
2022-08-14T16:10:25.715Z,99096.50
2022-08-14T16:12:54.612Z,99102.53
2022-08-14T16:15:22.398Z,99101.69
2022-08-14T16:17:52.859Z,99094.84
2022-08-14T16:20:42.562Z,99097.44
2022-08-14T16:23:12.313Z,99093.22
2022-08-14T16:25:45.305Z,99088.34
2022-08-14T16:28:13.393Z,99093.66
2022-08-14T16:30:54.733Z,99081.66
2022-08-14T16:33:56.709Z,99077.97
2022-08-14T16:36:31.224Z,99085.38
2022-08-14T16:39:02.205Z,99085.69
2022-08-14T16:41:30.037Z,99069.72
2022-08-14T16:44:21.493Z,99071.53
2022-08-14T16:47:04.142Z,99059.38
2022-08-14T16:50:03.455Z,99067.44
2022-08-14T16:52:43.737Z,99059.84
2022-08-14T16:55:13.958Z,99048.09
2022-08-14T16:57:58.536Z,99047.28
2022-08-14T17:00:43.680Z,99048.78
2022-08-14T17:03:13.056Z,99037.97
2022-08-14T17:05:46.911Z,99051.19
2022-08-14T17:08:42.583Z,99051.38
2022-08-14T17:11:11.067Z,99049.81
2022-08-14T17:13:58.937Z,99058.22
2022-08-14T17:16:38.345Z,99054.53
2022-08-14T17:19:13.555Z,99054.31
2022-08-14T17:21:42.686Z,99051.06
2022-08-14T17:24:56.417Z,99041.38
2022-08-14T17:27:08.703Z,99050.13
2022-08-14T17:29:44.997Z,99054.88
2022-08-14T17:32:44.781Z,99066.59
2022-08-14T17:35:57.973Z,99076.22
2022-08-14T17:38:39.019Z,99076.19
2022-08-14T17:41:22.688Z,99071.84
2022-08-14T17:43:55.013Z,99076.22
2022-08-14T17:46:49.450Z,99078.50
2022-08-14T17:49:28.222Z,99083.88
2022-08-14T17:52:16.950Z,99087.66
2022-08-14T17:54:52.652Z,99082.34
2022-08-14T17:57:40.617Z,99095.56
2022-08-14T18:00:14.657Z,99095.69
2022-08-14T18:02:50.358Z,99092.09
2022-08-14T18:05:23.489Z,99085.09
2022-08-14T18:08:33.573Z,99078.84
2022-08-14T18:10:56.884Z,99086.88
2022-08-14T18:13:49.685Z,99079.09
2022-08-14T18:16:20.198Z,99081.06
2022-08-14T18:18:51.732Z,99081.47
2022-08-14T18:21:40.624Z,99087.03
2022-08-14T18:24:20.227Z,99080.03
2022-08-14T18:27:22.835Z,99076.69
2022-08-14T18:29:56.623Z,99075.03
2022-08-14T18:32:30.973Z,99081.56
2022-08-14T18:35:56.739Z,99080.94
2022-08-14T18:38:45.624Z,99093.38
2022-08-14T18:41:37.479Z,99098.00
2022-08-14T18:44:10.744Z,99101.66
2022-08-14T18:47:15.164Z,99111.59
2022-08-14T18:49:57.590Z,99122.22
2022-08-14T18:52:34.643Z,99125.00
2022-08-14T18:55:22.325Z,99131.41
2022-08-14T18:57:58.495Z,99135.13
2022-08-14T19:00:32.246Z,99132.56
2022-08-14T19:03:06.920Z,99131.16
2022-08-14T19:05:47.129Z,99121.59
2022-08-14T19:08:27.298Z,99127.91
2022-08-14T19:11:04.020Z,99134.34
2022-08-14T19:13:48.205Z,99129.84
2022-08-14T19:16:26.031Z,99128.25
2022-08-14T19:19:06.703Z,99128.38
2022-08-14T19:21:38.655Z,99135.56
2022-08-14T19:24:27.933Z,99131.16
2022-08-14T19:27:23.497Z,99137.50
2022-08-14T19:30:20.354Z,99143.91
2022-08-14T19:32:55.779Z,99136.94
2022-08-14T19:35:48.783Z,99133.34
2022-08-14T19:38:47.534Z,99133.47
2022-08-14T19:41:34.045Z,99137.03
2022-08-14T19:44:20.492Z,99150.38
2022-08-14T19:47:04.770Z,99148.38
2022-08-14T19:50:30.216Z,99145.69
2022-08-14T19:52:40.000Z,99141.25
2022-08-14T19:55:19.717Z,99135.16
2022-08-14T19:57:58.014Z,99139.66
2022-08-14T20:00:28.967Z,99135.13
2022-08-14T20:03:11.834Z,99140.41
2022-08-14T20:05:43.087Z,99146.78
2022-08-14T20:11:00.236Z,99143.22
2022-08-14T20:12:00.636Z,99132.03
2022-08-14T20:14:29.729Z,99120.84
2022-08-14T20:17:05.678Z,99130.09
2022-08-14T20:19:38.071Z,99130.94
2022-08-14T20:22:36.444Z,99131.09
2022-08-14T20:25:22.813Z,99130.44
2022-08-14T20:27:59.462Z,99129.78
2022-08-14T20:30:35.436Z,99130.88
2022-08-14T20:33:11.231Z,99137.38
2022-08-14T20:35:49.197Z,99134.00
2022-08-14T20:38:33.306Z,99142.19
2022-08-14T20:41:08.625Z,99136.91
2022-08-14T20:44:00.672Z,99136.13
2022-08-14T20:46:38.832Z,99147.88
2022-08-14T20:49:19.186Z,99152.41
2022-08-14T20:51:59.445Z,99158.75
2022-08-14T20:54:34.531Z,99166.84
2022-08-14T20:57:17.822Z,99166.84
2022-08-14T20:59:53.539Z,99165.91
2022-08-14T21:02:34.606Z,99164.09
2022-08-14T21:05:16.196Z,99158.66
2022-08-14T21:07:50.953Z,99161.34
2022-08-14T21:10:33.421Z,99159.66
2022-08-14T21:13:26.807Z,99160.44
2022-08-14T21:15:57.116Z,99157.69
2022-08-14T21:18:47.610Z,99151.63
2022-08-14T21:21:23.565Z,99144.59
2022-08-14T21:24:10.464Z,99140.13
2022-08-14T21:27:12.066Z,99139.34
2022-08-14T21:29:41.107Z,99140.13
2022-08-14T21:32:34.047Z,99141.97
2022-08-14T21:35:08.090Z,99130.53
2022-08-14T21:37:47.644Z,99131.53
2022-08-14T21:40:40.672Z,99128.91
2022-08-14T21:43:17.297Z,99134.25
2022-08-14T21:45:56.179Z,99134.16
2022-08-14T21:48:31.857Z,99132.34
2022-08-14T21:51:54.930Z,99133.28
2022-08-14T21:53:58.406Z,99138.59
2022-08-14T21:56:39.063Z,99137.69
2022-08-14T21:59:17.590Z,99138.53
2022-08-14T22:02:00.903Z,99148.31
2022-08-14T22:04:40.305Z,99144.78
2022-08-14T22:07:17.170Z,99143.84
2022-08-14T22:09:54.684Z,99145.72
2022-08-14T22:12:57.375Z,99157.47
2022-08-14T22:15:17.240Z,99153.22
2022-08-14T22:17:52.317Z,99152.41
2022-08-14T22:20:28.646Z,99157.88
2022-08-14T22:23:04.345Z,99154.44
2022-08-14T22:25:40.997Z,99151.03
2022-08-14T22:28:19.249Z,99156.53
2022-08-14T22:30:55.191Z,99154.88
2022-08-14T22:33:30.998Z,99149.56
2022-08-14T22:36:25.197Z,99144.25
2022-08-14T22:38:54.960Z,99136.31
2022-08-14T22:41:29.622Z,99147.03
2022-08-14T22:44:15.036Z,99142.56
2022-08-14T22:46:45.317Z,99141.72
2022-08-14T22:50:31.509Z,99141.66
2022-08-14T22:52:31.608Z,99146.72
2022-08-14T22:54:58.804Z,99142.00
2022-08-14T22:57:41.768Z,99140.88
2022-08-14T23:00:25.073Z,99134.63
2022-08-14T23:02:58.205Z,99139.91
2022-08-14T23:05:38.867Z,99138.16
2022-08-14T23:09:00.258Z,99132.69
2022-08-14T23:10:59.634Z,99123.91
2022-08-14T23:13:26.961Z,99120.59
2022-08-14T23:15:59.961Z,99124.31
2022-08-14T23:18:29.637Z,99118.16
2022-08-14T23:20:57.600Z,99115.66
2022-08-14T23:23:24.986Z,99113.13
2022-08-14T23:25:58.746Z,99112.28
2022-08-14T23:28:34.589Z,99112.22
2022-08-14T23:31:34.224Z,99111.50
2022-08-14T23:34:20.995Z,99110.78
2022-08-14T23:36:55.932Z,99103.78
2022-08-14T23:39:31.498Z,99103.94
2022-08-14T23:42:08.842Z,99111.22
2022-08-14T23:44:38.083Z,99109.44
2022-08-14T23:47:11.880Z,99103.28
2022-08-14T23:50:03.409Z,99109.53
2022-08-14T23:53:06.856Z,99109.59
2022-08-14T23:55:33.404Z,99114.97
2022-08-14T23:58:01.102Z,99106.19
